Time;durP1;ratioP1;P1;durP2;ratioP2;P2;SDS_P1;SDS_P2;PMS_P1;PMS_P2;Temp;Humidity;BMP_temperature;BMP_pressure;BME280_temperature;BME280_humidity;BME280_pressure;Samples;Min_cycle;Max_cycle;Signal;HPM_P1;HPM_P2
2023/08/12 00:01:05;;;;;;;6.60;1.10;;;40.70;36.80;;;;;;5045922;28;20058;-57
2023/08/12 00:03:32;;;;;;;30.58;5.25;;;40.70;36.60;;;;;;5046122;28;20679;-56
2023/08/12 00:06:00;;;;;;;4.70;1.30;;;40.40;37.20;;;;;;5046169;28;20484;-55
2023/08/12 00:08:26;;;;;;;7.80;1.20;;;40.30;36.90;;;;;;5045532;28;20051;-56
2023/08/12 00:10:53;;;;;;;5.60;1.35;;;40.40;36.70;;;;;;5045925;28;20061;-57
2023/08/12 00:13:20;;;;;;;4.45;1.40;;;40.20;36.60;;;;;;5046229;28;20515;-56
2023/08/12 00:15:47;;;;;;;2.95;1.20;;;40.20;37.10;;;;;;5045270;28;20078;-59
2023/08/12 00:18:13;;;;;;;9.57;1.40;;;40.20;37.20;;;;;;5045935;28;20398;-56
2023/08/12 00:20:39;;;;;;;8.05;1.17;;;40.20;37.60;;;;;;5046614;28;20571;-58
2023/08/12 00:23:06;;;;;;;3.38;1.20;;;40.10;37.70;;;;;;5044638;28;20405;-59
2023/08/12 00:25:32;;;;;;;5.50;1.60;;;40.00;37.30;;;;;;5045995;28;20158;-58
2023/08/12 00:27:59;;;;;;;10.70;1.48;;;40.00;37.60;;;;;;5044166;28;20085;-57
2023/08/12 00:30:25;;;;;;;2.58;1.13;;;40.00;37.60;;;;;;5045357;28;20045;-56
2023/08/12 00:32:52;;;;;;;11.18;1.85;;;40.00;38.00;;;;;;5045395;28;20445;-61
2023/08/12 00:35:18;;;;;;;3.20;1.38;;;39.80;37.60;;;;;;5045852;28;20413;-56
2023/08/12 00:37:45;;;;;;;6.18;1.50;;;39.80;37.80;;;;;;5044950;28;20074;-58
2023/08/12 00:40:14;;;;;;;3.33;1.20;;;39.70;36.80;;;;;;5045539;28;20115;-58
2023/08/12 00:42:41;;;;;;;11.02;1.80;;;39.80;38.00;;;;;;5045938;28;20052;-58
2023/08/12 00:45:12;;;;;;;5.85;1.52;;;39.70;37.90;;;;;;5045639;28;20208;-59
2023/08/12 00:47:40;;;;;;;4.45;1.40;;;39.70;37.50;;;;;;5045459;28;20042;-60
2023/08/12 00:50:09;;;;;;;4.63;1.60;;;39.60;37.50;;;;;;5047145;28;20136;-59
2023/08/12 00:52:35;;;;;;;7.55;1.70;;;39.40;37.10;;;;;;5045783;28;20477;-55
2023/08/12 00:55:02;;;;;;;4.65;1.33;;;39.40;38.10;;;;;;5045939;28;20087;-60
2023/08/12 00:57:29;;;;;;;11.18;2.08;;;39.40;38.30;;;;;;5045186;28;20189;-60
2023/08/12 00:59:56;;;;;;;8.30;1.45;;;39.40;38.10;;;;;;5045681;28;20060;-56
2023/08/12 01:02:23;;;;;;;4.80;1.30;;;39.40;37.80;;;;;;5044731;28;20181;-59
2023/08/12 01:04:50;;;;;;;3.58;1.40;;;39.40;37.90;;;;;;5044032;28;20062;-59
2023/08/12 01:07:16;;;;;;;5.80;1.80;;;39.40;38.10;;;;;;5045370;28;20144;-56
2023/08/12 01:09:43;;;;;;;5.25;1.13;;;39.40;37.90;;;;;;5044142;28;20519;-59
2023/08/12 01:12:18;;;;;;;2.83;1.08;;;39.30;38.00;;;;;;5045425;28;20055;-58
2023/08/12 01:15:08;;;;;;;6.13;1.27;;;39.30;37.60;;;;;;5046969;28;20066;-58
2023/08/12 01:17:37;;;;;;;5.72;1.50;;;39.30;38.00;;;;;;5044395;28;20123;-54
2023/08/12 01:20:08;;;;;;;2.95;1.30;;;39.30;37.70;;;;;;5044874;28;20055;-62
2023/08/12 01:22:40;;;;;;;30.67;2.92;;;39.60;38.20;;;;;;5044276;28;20054;-63
2023/08/12 01:25:08;;;;;;;4.85;1.67;;;40.60;37.70;;;;;;5043775;28;20082;-63
2023/08/12 01:27:38;;;;;;;4.18;1.38;;;41.20;36.50;;;;;;5043726;28;20078;-62
2023/08/12 01:30:07;;;;;;;4.78;1.42;;;41.40;35.90;;;;;;5042946;28;20138;-65
2023/08/12 01:32:37;;;;;;;4.75;1.55;;;41.40;36.00;;;;;;5045546;28;20079;-65
2023/08/12 01:35:25;;;;;;;2.58;1.13;;;41.40;36.10;;;;;;5048142;28;20407;-66
2023/08/12 01:37:52;;;;;;;3.80;1.40;;;41.30;36.50;;;;;;5047435;28;20455;-62
2023/08/12 01:40:20;;;;;;;6.90;1.65;;;41.20;35.70;;;;;;5047305;28;20409;-64
2023/08/12 01:42:48;;;;;;;5.30;1.60;;;41.40;35.80;;;;;;5047716;28;20052;-62
2023/08/12 01:45:14;;;;;;;5.43;1.58;;;41.40;35.90;;;;;;5047246;28;20037;-61
2023/08/12 01:47:43;;;;;;;8.23;1.65;;;41.20;34.90;;;;;;5047014;28;20057;-63
2023/08/12 01:50:10;;;;;;;3.72;1.20;;;41.20;35.90;;;;;;5049385;28;20043;-63
2023/08/12 01:52:36;;;;;;;3.75;1.70;;;41.10;36.00;;;;;;5047212;28;20043;-62
2023/08/12 01:55:04;;;;;;;8.18;1.50;;;41.00;35.90;;;;;;5047700;28;20143;-65
2023/08/12 01:57:30;;;;;;;4.43;1.90;;;41.00;35.50;;;;;;5047270;28;20013;-63
2023/08/12 01:59:57;;;;;;;3.05;1.52;;;41.00;35.20;;;;;;5047803;28;20407;-63
2023/08/12 02:02:23;;;;;;;4.47;1.30;;;40.90;35.20;;;;;;5048762;28;20061;-63
2023/08/12 02:04:49;;;;;;;5.10;1.77;;;40.80;35.40;;;;;;5048177;28;20074;-63
2023/08/12 02:07:16;;;;;;;5.32;2.10;;;40.60;35.80;;;;;;5047813;28;20058;-63
2023/08/12 02:09:42;;;;;;;7.72;2.22;;;40.30;35.80;;;;;;5048147;28;20060;-63
2023/08/12 02:12:09;;;;;;;6.78;1.98;;;40.20;35.80;;;;;;5046884;28;20065;-65
2023/08/12 02:14:36;;;;;;;10.00;2.30;;;40.10;36.10;;;;;;5047641;28;20547;-61
2023/08/12 02:17:05;;;;;;;4.65;2.00;;;39.90;36.20;;;;;;5047379;28;20071;-64
2023/08/12 02:19:33;;;;;;;6.88;2.13;;;39.80;36.50;;;;;;5045827;28;20423;-63
2023/08/12 02:22:01;;;;;;;8.77;2.58;;;39.60;36.60;;;;;;5046838;28;20067;-63
2023/08/12 02:24:27;;;;;;;15.15;2.55;;;39.60;36.60;;;;;;5046505;28;20598;-62
2023/08/12 02:26:54;;;;;;;11.63;2.58;;;39.40;36.70;;;;;;5047011;28;20063;-62
2023/08/12 02:29:20;;;;;;;9.20;2.40;;;39.20;36.90;;;;;;5046791;28;20419;-61
2023/08/12 02:31:47;;;;;;;10.43;3.08;;;39.00;37.40;;;;;;5046677;28;20061;-61
2023/08/12 02:34:13;;;;;;;6.30;3.20;;;39.00;37.40;;;;;;5046324;28;20821;-61
2023/08/12 02:36:39;;;;;;;8.60;3.38;;;38.90;37.70;;;;;;5046288;28;20092;-62
2023/08/12 02:39:06;;;;;;;6.95;3.30;;;38.90;37.60;;;;;;5046462;28;20443;-63
2023/08/12 02:41:32;;;;;;;10.95;3.75;;;38.90;37.80;;;;;;5046849;28;20083;-63
2023/08/12 02:43:58;;;;;;;18.40;3.85;;;38.80;38.20;;;;;;5046747;28;20073;-62
2023/08/12 02:46:25;;;;;;;16.92;3.33;;;38.70;37.80;;;;;;5046899;28;20427;-62
2023/08/12 02:48:51;;;;;;;7.63;2.85;;;38.60;37.60;;;;;;5047647;28;20060;-61
2023/08/12 02:51:18;;;;;;;11.80;2.88;;;38.40;37.30;;;;;;5048578;28;20084;-60
2023/08/12 02:53:44;;;;;;;9.63;3.10;;;38.30;37.10;;;;;;5048262;28;20068;-62
2023/08/12 02:56:10;;;;;;;12.23;2.92;;;38.30;37.20;;;;;;5047849;28;20473;-66
2023/08/12 02:58:37;;;;;;;20.30;3.30;;;38.20;37.50;;;;;;5046687;28;20060;-63
2023/08/12 03:01:04;;;;;;;10.48;3.45;;;38.10;37.70;;;;;;5046300;28;20060;-62
2023/08/12 03:03:30;;;;;;;12.57;3.88;;;38.00;37.80;;;;;;5046095;28;20091;-62
2023/08/12 03:05:57;;;;;;;14.45;3.67;;;38.10;38.10;;;;;;5045764;28;20071;-62
2023/08/12 03:08:23;;;;;;;11.80;2.95;;;38.00;38.30;;;;;;5046234;28;20085;-63
2023/08/12 03:10:50;;;;;;;6.93;2.60;;;37.90;38.30;;;;;;5045425;28;20064;-61
2023/08/12 03:13:16;;;;;;;9.20;2.10;;;37.80;38.70;;;;;;5046159;28;20065;-63
2023/08/12 03:15:43;;;;;;;10.57;2.92;;;37.70;39.00;;;;;;5046170;28;20090;-64
2023/08/12 03:18:09;;;;;;;8.48;2.90;;;37.70;39.10;;;;;;5046116;28;20132;-61
2023/08/12 03:20:36;;;;;;;9.80;3.05;;;37.60;39.10;;;;;;5047536;28;20082;-63
2023/08/12 03:23:03;;;;;;;9.98;3.55;;;37.60;39.20;;;;;;5045364;28;20059;-62
2023/08/12 03:25:29;;;;;;;14.70;3.83;;;37.60;39.60;;;;;;5045878;28;20070;-60
2023/08/12 03:27:56;;;;;;;7.45;3.25;;;37.50;39.70;;;;;;5046000;28;20063;-61
2023/08/12 03:30:22;;;;;;;12.13;2.75;;;37.40;39.80;;;;;;5046822;28;20518;-63
2023/08/12 03:32:48;;;;;;;8.88;2.63;;;37.30;40.20;;;;;;5044298;28;20536;-63
2023/08/12 03:35:15;;;;;;;9.15;2.45;;;37.20;40.20;;;;;;5045667;28;20070;-60
2023/08/12 03:37:41;;;;;;;11.38;2.50;;;37.20;40.60;;;;;;5045692;28;20457;-62
2023/08/12 03:40:08;;;;;;;12.63;2.38;;;37.10;40.70;;;;;;5045762;28;20059;-63
2023/08/12 03:42:35;;;;;;;16.40;2.75;;;37.10;41.10;;;;;;5045637;28;20070;-61
2023/08/12 03:45:01;;;;;;;13.00;3.10;;;37.00;40.90;;;;;;5046893;28;20582;-61
2023/08/12 03:47:27;;;;;;;7.07;2.72;;;37.00;41.10;;;;;;5046217;28;20525;-62
2023/08/12 03:49:54;;;;;;;12.75;3.15;;;36.90;41.10;;;;;;5046547;28;20101;-61
2023/08/12 03:52:20;;;;;;;14.38;2.88;;;36.90;41.30;;;;;;5046173;28;20116;-60
2023/08/12 03:54:47;;;;;;;11.00;3.53;;;36.90;41.40;;;;;;5044330;28;20068;-63
2023/08/12 03:57:13;;;;;;;15.00;3.10;;;36.80;41.70;;;;;;5044809;28;20587;-63
2023/08/12 03:59:40;;;;;;;9.07;3.55;;;36.80;41.70;;;;;;5046585;28;20106;-61
2023/08/12 04:02:06;;;;;;;12.95;3.10;;;36.70;41.80;;;;;;5045747;28;20073;-64
2023/08/12 04:04:32;;;;;;;12.15;3.92;;;36.70;41.80;;;;;;5043813;28;20111;-63
2023/08/12 04:06:59;;;;;;;9.95;3.55;;;36.70;41.70;;;;;;5045978;28;20062;-63
2023/08/12 04:09:25;;;;;;;15.15;3.20;;;36.60;41.60;;;;;;5046127;28;20066;-60
2023/08/12 04:11:52;;;;;;;11.82;3.00;;;36.50;41.50;;;;;;5045894;28;20070;-62
2023/08/12 04:14:18;;;;;;;11.02;3.33;;;36.40;41.30;;;;;;5046493;28;20120;-64
2023/08/12 04:16:44;;;;;;;16.83;3.90;;;36.30;41.50;;;;;;5045116;28;20073;-61
2023/08/12 04:19:11;;;;;;;13.65;3.50;;;36.30;41.80;;;;;;5045518;28;20077;-62
2023/08/12 04:21:37;;;;;;;11.32;3.17;;;36.30;41.80;;;;;;5045683;28;20074;-63
2023/08/12 04:24:04;;;;;;;7.32;2.97;;;36.20;41.80;;;;;;5044008;28;20132;-64
2023/08/12 04:26:30;;;;;;;17.63;2.92;;;36.20;42.30;;;;;;5044118;28;20099;-62
2023/08/12 04:28:56;;;;;;;13.43;4.07;;;36.20;42.20;;;;;;5045466;28;20202;-62
2023/08/12 04:31:23;;;;;;;13.63;2.80;;;36.10;42.50;;;;;;5046318;28;20114;-62
2023/08/12 04:33:52;;;;;;;7.97;2.47;;;36.10;42.90;;;;;;5045148;28;20078;-62
2023/08/12 04:36:19;;;;;;;12.23;2.00;;;36.00;42.80;;;;;;5045376;28;20075;-63
2023/08/12 04:38:45;;;;;;;6.32;1.77;;;35.90;42.70;;;;;;5044959;28;20090;-61
2023/08/12 04:41:12;;;;;;;6.38;1.98;;;35.90;42.80;;;;;;5044652;28;20080;-62
2023/08/12 04:43:38;;;;;;;6.28;1.77;;;35.80;42.70;;;;;;5046372;28;20088;-62
2023/08/12 04:46:05;;;;;;;5.63;2.03;;;35.80;42.80;;;;;;5045999;28;20094;-63
2023/08/12 04:48:31;;;;;;;6.38;1.77;;;35.70;43.30;;;;;;5046650;28;20065;-62
2023/08/12 04:51:01;;;;;;;9.40;1.98;;;35.60;43.70;;;;;;5046934;28;20075;-60
2023/08/12 04:53:27;;;;;;;7.28;2.10;;;35.50;44.50;;;;;;5046369;28;20075;-62
2023/08/12 04:55:56;;;;;;;4.03;2.10;;;35.40;44.90;;;;;;5045890;28;20174;-61
2023/08/12 04:58:23;;;;;;;3.72;1.90;;;35.30;45.00;;;;;;5045544;28;20080;-64
2023/08/12 05:00:54;;;;;;;8.93;2.33;;;35.20;45.80;;;;;;5045246;28;20088;-62
2023/08/12 05:03:20;;;;;;;4.90;2.10;;;35.10;45.90;;;;;;5044754;28;20093;-64
2023/08/12 05:05:53;;;;;;;7.55;1.90;;;35.10;46.40;;;;;;5045480;28;20107;-64
2023/08/12 05:08:19;;;;;;;9.93;2.10;;;35.00;46.10;;;;;;5046448;28;20136;-61
2023/08/12 05:10:49;;;;;;;7.97;2.60;;;34.90;46.40;;;;;;5049032;28;20157;-63
2023/08/12 05:13:16;;;;;;;9.93;2.03;;;34.80;46.10;;;;;;5049137;28;20162;-60
2023/08/12 05:15:45;;;;;;;12.00;1.92;;;34.80;46.20;;;;;;5049815;28;20123;-62
2023/08/12 05:18:12;;;;;;;4.43;2.08;;;34.70;46.10;;;;;;5048092;28;20138;-63
2023/08/12 05:20:39;;;;;;;5.55;1.90;;;34.70;46.50;;;;;;5050051;28;20166;-62
2023/08/12 05:23:05;;;;;;;6.50;1.80;;;34.60;46.50;;;;;;5048301;28;20081;-64
2023/08/12 05:25:32;;;;;;;4.88;1.95;;;34.50;46.60;;;;;;5048368;28;20077;-64
2023/08/12 05:27:58;;;;;;;10.05;1.92;;;34.50;46.70;;;;;;5047430;28;20165;-60
2023/08/12 05:30:24;;;;;;;6.18;2.00;;;34.40;46.90;;;;;;5046901;28;20085;-61
2023/08/12 05:32:51;;;;;;;4.25;1.60;;;34.40;47.00;;;;;;5048351;28;20108;-63
2023/08/12 05:35:17;;;;;;;9.25;1.90;;;34.30;47.10;;;;;;5048355;28;20172;-63
2023/08/12 05:37:44;;;;;;;8.60;1.92;;;34.30;47.40;;;;;;5048077;28;20179;-63
2023/08/12 05:40:11;;;;;;;10.60;2.13;;;34.20;47.50;;;;;;5047922;28;20076;-63
2023/08/12 05:42:37;;;;;;;12.52;2.13;;;34.10;48.00;;;;;;5048335;28;20610;-61
2023/08/12 05:45:05;;;;;;;6.93;2.08;;;34.00;47.90;;;;;;5048911;28;20553;-65
2023/08/12 05:47:32;;;;;;;5.65;2.20;;;33.90;48.10;;;;;;5048315;28;20071;-63
2023/08/12 05:49:59;;;;;;;4.35;1.80;;;33.90;48.20;;;;;;5049099;28;20165;-63
2023/08/12 05:52:25;;;;;;;4.60;2.03;;;33.80;48.10;;;;;;5048368;28;20081;-59
2023/08/12 05:54:51;;;;;;;5.70;2.00;;;33.70;48.10;;;;;;5047569;28;20094;-61
2023/08/12 05:57:18;;;;;;;7.45;2.28;;;33.70;48.20;;;;;;5048666;28;20159;-62
2023/08/12 05:59:44;;;;;;;9.27;2.08;;;33.70;48.20;;;;;;5048827;28;20162;-60
2023/08/12 06:02:11;;;;;;;6.50;2.05;;;33.60;48.10;;;;;;5047836;28;20084;-63
2023/08/12 06:04:37;;;;;;;4.45;1.73;;;33.60;48.20;;;;;;5047622;28;20237;-64
2023/08/12 06:07:04;;;;;;;5.80;1.88;;;33.60;48.20;;;;;;5047964;28;20080;-63
2023/08/12 06:09:30;;;;;;;7.65;2.08;;;33.60;48.50;;;;;;5048598;28;20602;-62
2023/08/12 06:11:56;;;;;;;4.00;1.88;;;33.50;48.30;;;;;;5048112;28;20080;-62
2023/08/12 06:14:23;;;;;;;10.05;2.13;;;33.50;48.60;;;;;;5048480;28;20591;-64
2023/08/12 06:16:49;;;;;;;3.17;1.77;;;33.50;48.70;;;;;;5048132;28;20084;-65
2023/08/12 06:19:16;;;;;;;5.10;2.05;;;33.40;48.70;;;;;;5048233;28;20111;-63
2023/08/12 06:21:42;;;;;;;5.53;1.73;;;33.40;48.60;;;;;;5048246;28;20445;-60
2023/08/12 06:24:09;;;;;;;9.40;1.90;;;33.30;48.60;;;;;;5047421;28;20092;-62
2023/08/12 06:26:35;;;;;;;5.15;1.75;;;33.30;48.50;;;;;;5048418;28;20091;-61
2023/08/12 06:29:01;;;;;;;10.35;1.98;;;33.30;48.50;;;;;;5050069;28;20084;-62
2023/08/12 06:31:28;;;;;;;5.18;1.70;;;33.20;48.30;;;;;;5048049;28;20088;-61
2023/08/12 06:33:54;;;;;;;5.78;1.80;;;33.10;48.30;;;;;;5047748;28;20122;-60
2023/08/12 06:36:21;;;;;;;8.00;1.70;;;33.10;48.70;;;;;;5048172;28;20492;-60
2023/08/12 06:38:47;;;;;;;7.25;2.10;;;33.10;48.30;;;;;;5047327;28;20096;-60
2023/08/12 06:41:13;;;;;;;6.43;1.95;;;33.10;48.30;;;;;;5047791;28;20080;-62
2023/08/12 06:43:40;;;;;;;5.47;1.48;;;33.10;48.10;;;;;;5047488;28;20194;-60
2023/08/12 06:46:06;;;;;;;5.22;1.73;;;33.10;48.10;;;;;;5048075;28;20076;-61
2023/08/12 06:48:33;;;;;;;3.35;1.40;;;33.10;48.30;;;;;;5047539;28;20089;-61
2023/08/12 06:50:59;;;;;;;6.82;1.83;;;33.00;48.30;;;;;;5047683;28;20083;-60
2023/08/12 06:53:26;;;;;;;8.57;1.73;;;32.90;48.50;;;;;;5047303;28;20079;-59
2023/08/12 06:55:53;;;;;;;7.55;2.00;;;32.80;48.40;;;;;;5046329;28;20072;-62
2023/08/12 06:58:19;;;;;;;10.10;1.75;;;32.90;48.60;;;;;;5048179;28;20106;-60
2023/08/12 07:00:46;;;;;;;15.52;1.85;;;32.80;48.40;;;;;;5046549;28;20089;-62
2023/08/12 07:03:12;;;;;;;27.38;3.30;;;32.80;48.70;;;;;;5046557;28;20081;-62
2023/08/12 07:05:38;;;;;;;16.88;2.58;;;32.90;48.70;;;;;;5046799;28;20086;-62
2023/08/12 07:08:05;;;;;;;53.25;5.60;;;32.80;49.20;;;;;;5047301;28;20206;-64
2023/08/12 07:10:31;;;;;;;10.38;2.00;;;32.80;48.70;;;;;;5046377;28;20076;-62
2023/08/12 07:12:58;;;;;;;4.13;1.42;;;32.80;48.90;;;;;;5046315;28;20199;-61
2023/08/12 07:15:24;;;;;;;10.52;1.52;;;32.70;48.60;;;;;;5046812;28;20546;-61
2023/08/12 07:17:51;;;;;;;26.02;3.55;;;32.70;48.70;;;;;;5046381;28;20522;-62
2023/08/12 07:20:17;;;;;;;16.65;2.20;;;32.60;49.10;;;;;;5047405;28;20615;-62
2023/08/12 07:22:43;;;;;;;8.13;1.50;;;32.60;49.30;;;;;;5046354;28;20130;-62
2023/08/12 07:25:10;;;;;;;4.88;1.30;;;32.60;49.20;;;;;;5046620;28;20470;-62
2023/08/12 07:27:37;;;;;;;7.57;1.55;;;32.50;49.30;;;;;;5046668;28;20084;-65
2023/08/12 07:30:03;;;;;;;6.18;1.58;;;32.50;49.00;;;;;;5045968;28;20100;-63
2023/08/12 07:32:30;;;;;;;3.65;1.30;;;32.50;49.00;;;;;;5045582;28;20080;-62
2023/08/12 07:34:56;;;;;;;7.05;1.83;;;32.40;49.40;;;;;;5046393;28;20123;-62
2023/08/12 07:37:22;;;;;;;12.40;2.50;;;32.30;49.60;;;;;;5045387;28;20108;-62
2023/08/12 07:39:49;;;;;;;10.43;2.10;;;32.30;50.20;;;;;;5046064;28;20216;-61
2023/08/12 07:42:15;;;;;;;8.65;2.17;;;32.20;50.00;;;;;;5046924;28;20084;-61
2023/08/12 07:44:42;;;;;;;5.40;1.55;;;32.30;50.70;;;;;;5044935;28;20092;-60
2023/08/12 07:47:09;;;;;;;271.08;15.10;;;32.40;49.80;;;;;;5045463;28;20123;-61
2023/08/12 07:49:35;;;;;;;8.30;2.13;;;32.40;50.50;;;;;;5045987;28;20150;-63
2023/08/12 07:52:02;;;;;;;5.90;2.28;;;32.30;51.20;;;;;;5045425;28;20081;-63
2023/08/12 07:54:28;;;;;;;6.25;1.90;;;32.20;50.80;;;;;;5042870;28;20080;-61
2023/08/12 07:56:55;;;;;;;6.85;2.05;;;32.20;52.90;;;;;;5045798;28;20120;-62
2023/08/12 07:59:21;;;;;;;12.63;2.13;;;32.10;51.90;;;;;;5046512;28;20577;-63
2023/08/12 08:01:48;;;;;;;9.20;2.10;;;32.10;51.10;;;;;;5044368;28;20086;-63
2023/08/12 08:04:14;;;;;;;8.07;2.05;;;32.00;51.20;;;;;;5044892;28;20100;-62
2023/08/12 08:06:40;;;;;;;5.40;1.90;;;31.90;51.40;;;;;;5046383;28;20087;-62
2023/08/12 08:09:07;;;;;;;4.95;2.10;;;31.80;51.50;;;;;;5045120;28;20542;-61
2023/08/12 08:11:34;;;;;;;6.65;2.08;;;31.80;52.00;;;;;;5045501;28;20130;-63
2023/08/12 08:14:00;;;;;;;8.65;1.80;;;31.80;52.40;;;;;;5045329;28;20588;-62
2023/08/12 08:16:27;;;;;;;6.30;1.67;;;31.80;51.90;;;;;;5045893;28;20088;-63
2023/08/12 08:18:53;;;;;;;8.07;1.83;;;31.70;51.90;;;;;;5045062;28;20167;-61
2023/08/12 08:21:20;;;;;;;6.22;2.10;;;31.60;52.00;;;;;;5045578;28;20550;-63
2023/08/12 08:23:46;;;;;;;5.70;2.38;;;31.60;51.80;;;;;;5044910;28;20106;-62
2023/08/12 08:26:15;;;;;;;5.75;2.10;;;31.60;52.40;;;;;;5045708;28;20084;-63
2023/08/12 08:28:42;;;;;;;5.85;1.50;;;31.60;52.60;;;;;;5047388;28;20079;-64
2023/08/12 08:31:09;;;;;;;10.25;2.20;;;31.60;52.50;;;;;;5045223;28;20076;-63
2023/08/12 08:33:35;;;;;;;7.07;2.50;;;31.60;52.80;;;;;;5045617;28;20092;-61
2023/08/12 08:36:02;;;;;;;5.40;2.47;;;31.50;52.60;;;;;;5045532;28;20111;-62
2023/08/12 08:38:28;;;;;;;13.35;3.08;;;31.50;52.90;;;;;;5043599;28;20225;-63
2023/08/12 08:40:55;;;;;;;5.72;3.05;;;31.50;52.80;;;;;;5045669;28;20576;-62
2023/08/12 08:43:24;;;;;;;5.70;2.45;;;31.50;52.70;;;;;;5048500;28;20762;-62
2023/08/12 08:45:53;;;;;;;6.78;2.55;;;31.50;52.60;;;;;;5049438;28;20450;-63
2023/08/12 08:48:20;;;;;;;6.97;2.38;;;31.50;52.70;;;;;;5049118;28;20076;-62
2023/08/12 08:50:51;;;;;;;9.98;1.80;;;31.50;52.50;;;;;;5049792;28;20089;-64
2023/08/12 08:53:18;;;;;;;5.18;2.17;;;31.50;52.50;;;;;;5050414;28;20114;-64
2023/08/12 08:55:45;;;;;;;4.30;1.80;;;31.40;52.50;;;;;;5048964;28;20077;-63
2023/08/12 08:58:11;;;;;;;3.92;1.63;;;31.40;52.60;;;;;;5050457;28;20076;-63
2023/08/12 09:00:39;;;;;;;5.15;1.65;;;31.40;51.90;;;;;;5049563;28;20557;-62
2023/08/12 09:03:06;;;;;;;3.00;1.75;;;31.40;51.30;;;;;;5049700;28;20109;-63
2023/08/12 09:05:34;;;;;;;8.73;1.85;;;31.40;51.30;;;;;;5049315;28;20099;-63
2023/08/12 09:08:01;;;;;;;7.25;1.55;;;31.40;51.50;;;;;;5049897;28;20129;-63
2023/08/12 09:10:29;;;;;;;5.28;1.95;;;31.50;52.60;;;;;;5050231;28;20080;-63
2023/08/12 09:12:56;;;;;;;4.85;1.70;;;31.40;51.50;;;;;;5050199;28;20644;-62
2023/08/12 09:15:23;;;;;;;8.15;1.85;;;31.30;52.20;;;;;;5049755;28;20098;-63
2023/08/12 09:17:50;;;;;;;10.23;2.03;;;31.30;52.20;;;;;;5049625;28;20139;-61
2023/08/12 09:20:16;;;;;;;4.75;1.70;;;31.30;52.20;;;;;;5049318;28;20568;-61
2023/08/12 09:22:43;;;;;;;9.10;1.98;;;31.30;51.80;;;;;;5049733;28;20118;-61
2023/08/12 09:25:10;;;;;;;5.95;1.88;;;31.20;52.50;;;;;;5049374;28;20142;-64
2023/08/12 09:27:40;;;;;;;6.43;2.00;;;31.20;52.50;;;;;;5049704;28;20076;-64
2023/08/12 09:30:07;;;;;;;4.97;1.70;;;31.20;52.20;;;;;;5049679;28;20537;-62
2023/08/12 09:32:38;;;;;;;6.55;1.98;;;31.20;52.30;;;;;;5048093;28;20080;-62
2023/08/12 09:35:05;;;;;;;7.72;2.25;;;31.20;52.00;;;;;;5049336;28;20083;-62
2023/08/12 09:37:32;;;;;;;8.43;2.08;;;31.10;52.40;;;;;;5049273;28;20095;-61
2023/08/12 09:39:59;;;;;;;10.48;2.03;;;31.00;51.70;;;;;;5049477;28;20092;-62
2023/08/12 09:42:25;;;;;;;5.57;1.70;;;31.00;53.20;;;;;;5049137;28;20449;-61
2023/08/12 09:44:52;;;;;;;6.20;2.00;;;31.00;52.40;;;;;;5049596;28;20096;-61
2023/08/12 09:47:19;;;;;;;9.55;2.10;;;31.00;52.40;;;;;;5046658;28;20094;-63
2023/08/12 09:49:45;;;;;;;10.18;1.95;;;31.00;52.80;;;;;;5048826;28;20080;-61
2023/08/12 09:52:12;;;;;;;4.60;1.83;;;31.00;52.70;;;;;;5048818;28;20072;-61
2023/08/12 09:54:39;;;;;;;9.15;2.05;;;31.00;52.50;;;;;;5047659;28;20554;-61
2023/08/12 09:57:11;;;;;;;5.03;1.83;;;31.00;52.50;;;;;;5048699;28;20167;-64
2023/08/12 09:59:41;;;;;;;3.55;2.00;;;31.00;52.60;;;;;;5051020;28;20615;-63
2023/08/12 10:02:12;;;;;;;8.32;1.95;;;31.00;52.20;;;;;;5048742;28;20092;-63
2023/08/12 10:04:45;;;;;;;6.88;2.08;;;31.00;52.30;;;;;;5047221;28;20092;-63
2023/08/12 10:07:14;;;;;;;4.88;1.70;;;31.00;52.60;;;;;;5047861;28;20545;-62
2023/08/12 10:09:41;;;;;;;7.25;2.25;;;30.90;52.20;;;;;;5048651;28;20459;-61
2023/08/12 10:12:09;;;;;;;12.48;1.90;;;30.90;52.40;;;;;;5048582;28;20096;-63
2023/08/12 10:14:35;;;;;;;7.10;1.70;;;30.80;52.10;;;;;;5048694;28;20450;-61
2023/08/12 10:17:02;;;;;;;5.78;2.20;;;30.80;51.90;;;;;;5048330;28;20126;-61
2023/08/12 10:19:30;;;;;;;5.53;2.17;;;30.80;52.10;;;;;;5049745;28;21280;-63
2023/08/12 10:21:59;;;;;;;6.75;2.03;;;30.80;51.90;;;;;;5048148;28;20080;-62
2023/08/12 10:24:29;;;;;;;6.80;2.42;;;30.70;52.20;;;;;;5048427;28;20096;-62
2023/08/12 10:26:55;;;;;;;9.80;2.20;;;30.70;52.60;;;;;;5048081;28;20095;-62
2023/08/12 10:29:24;;;;;;;7.55;2.00;;;30.70;51.90;;;;;;5050440;28;20445;-64
2023/08/12 10:31:51;;;;;;;7.25;1.70;;;30.70;52.60;;;;;;5049165;28;20556;-66
2023/08/12 10:34:25;;;;;;;6.00;1.52;;;30.70;52.70;;;;;;5047785;28;20122;-63
2023/08/12 10:37:02;;;;;;;7.38;1.80;;;30.70;52.70;;;;;;5048696;28;20084;-63
2023/08/12 10:39:32;;;;;;;6.38;1.40;;;30.70;52.40;;;;;;5047161;28;20671;-61
2023/08/12 10:41:59;;;;;;;4.00;1.83;;;30.70;52.50;;;;;;5049261;28;20081;-64
2023/08/12 10:44:43;;;;;;;7.22;1.70;;;30.70;53.10;;;;;;5048094;28;20088;-65
2023/08/12 10:47:13;;;;;;;9.32;1.80;;;30.70;52.40;;;;;;5047877;28;20155;-64
2023/08/12 10:49:45;;;;;;;4.13;1.50;;;30.70;52.80;;;;;;5048294;28;20100;-62
2023/08/12 10:52:32;;;;;;;4.80;1.92;;;30.70;52.70;;;;;;5046654;28;20081;-60
2023/08/12 10:55:17;;;;;;;4.28;1.70;;;30.70;53.40;;;;;;5048500;28;20088;-64
2023/08/12 10:57:44;;;;;;;11.98;2.20;;;30.70;52.70;;;;;;5046499;28;20095;-62
2023/08/12 11:00:17;;;;;;;8.23;2.00;;;30.60;53.10;;;;;;5047512;28;20088;-63
2023/08/12 11:02:50;;;;;;;8.05;2.38;;;30.70;53.10;;;;;;5048707;28;20080;-62
2023/08/12 11:05:18;;;;;;;6.95;1.75;;;30.50;54.00;;;;;;5047506;28;20115;-62
2023/08/12 11:07:55;;;;;;;7.55;1.73;;;30.50;54.10;;;;;;5047458;28;20088;-61
2023/08/12 11:10:26;;;;;;;8.40;2.42;;;30.60;53.90;;;;;;5046015;28;20079;-61
2023/08/12 11:12:56;;;;;;;7.93;2.47;;;30.60;53.90;;;;;;5046726;28;20546;-62
2023/08/12 11:15:38;;;;;;;5.47;2.03;;;30.70;53.30;;;;;;5047510;28;20163;-62
2023/08/12 11:18:07;;;;;;;6.97;1.83;;;30.70;54.90;;;;;;5048112;28;20133;-61
2023/08/12 11:20:34;;;;;;;4.97;1.80;;;30.60;54.20;;;;;;5049547;28;20183;-62
2023/08/12 11:23:02;;;;;;;5.00;1.98;;;30.60;53.90;;;;;;5047798;28;20103;-64
2023/08/12 11:25:30;;;;;;;7.15;2.03;;;30.50;53.80;;;;;;5045144;28;20151;-63
2023/08/12 11:27:57;;;;;;;9.00;2.00;;;30.50;55.20;;;;;;5046763;28;20130;-62
2023/08/12 11:30:24;;;;;;;4.43;1.60;;;30.50;54.60;;;;;;5047366;28;20562;-62
2023/08/12 11:32:52;;;;;;;5.65;1.75;;;30.40;55.00;;;;;;5046190;28;20072;-62
2023/08/12 11:35:20;;;;;;;8.77;2.38;;;30.40;54.70;;;;;;5047880;28;20167;-62
2023/08/12 11:37:48;;;;;;;4.93;1.90;;;30.40;54.50;;;;;;5046609;28;20503;-61
2023/08/12 11:40:16;;;;;;;6.88;1.83;;;30.40;54.30;;;;;;5046434;28;20088;-62
2023/08/12 11:42:50;;;;;;;7.50;2.05;;;30.40;55.00;;;;;;5046710;28;20112;-62
2023/08/12 11:45:23;;;;;;;7.15;2.00;;;30.30;55.00;;;;;;5047019;28;20178;-62
2023/08/12 11:47:52;;;;;;;6.28;2.05;;;30.20;55.20;;;;;;5047151;28;20082;-61
2023/08/12 11:50:21;;;;;;;6.68;2.20;;;30.20;55.00;;;;;;5047876;28;20199;-61
2023/08/12 11:52:48;;;;;;;7.30;2.10;;;30.10;54.50;;;;;;5046295;28;20091;-63
2023/08/12 11:55:15;;;;;;;9.18;2.20;;;30.10;54.50;;;;;;5046494;28;20997;-62
2023/08/12 11:57:43;;;;;;;8.25;2.10;;;30.10;54.40;;;;;;5046446;28;20089;-62
2023/08/12 12:00:14;;;;;;;8.70;2.58;;;30.20;54.90;;;;;;5047777;28;20077;-63
2023/08/12 12:02:46;;;;;;;7.90;2.22;;;30.20;54.00;;;;;;5045196;28;20111;-62
2023/08/12 12:05:14;;;;;;;12.90;2.30;;;30.30;54.60;;;;;;5047166;28;20092;-62
2023/08/12 12:07:41;;;;;;;7.45;2.00;;;30.10;54.30;;;;;;5046597;28;20105;-61
2023/08/12 12:10:08;;;;;;;6.07;2.05;;;30.10;54.50;;;;;;5046660;28;20077;-63
2023/08/12 12:12:35;;;;;;;8.25;1.83;;;30.10;54.30;;;;;;5046515;28;20107;-61
2023/08/12 12:15:02;;;;;;;8.75;2.15;;;30.10;53.90;;;;;;5046409;28;20517;-63
2023/08/12 12:17:29;;;;;;;9.55;2.20;;;30.10;54.00;;;;;;5045753;28;20081;-62
2023/08/12 12:19:57;;;;;;;10.02;2.13;;;30.10;53.80;;;;;;5046156;28;20119;-63
2023/08/12 12:22:33;;;;;;;7.38;2.65;;;30.10;54.00;;;;;;5045933;28;20634;-63
2023/08/12 12:25:05;;;;;;;8.40;2.42;;;30.10;54.20;;;;;;5046424;28;20197;-62
2023/08/12 12:27:31;;;;;;;7.88;2.25;;;30.10;54.50;;;;;;5044689;28;20142;-61
2023/08/12 12:29:58;;;;;;;10.30;2.45;;;30.10;54.70;;;;;;5046858;28;20157;-63
2023/08/12 12:32:24;;;;;;;9.90;1.90;;;30.20;54.90;;;;;;5045821;28;20095;-62
2023/08/12 12:34:52;;;;;;;4.25;1.80;;;30.20;55.20;;;;;;5046295;28;20462;-62
2023/08/12 12:37:18;;;;;;;8.68;2.15;;;30.10;55.90;;;;;;5044465;28;20565;-62
2023/08/12 12:39:45;;;;;;;8.10;2.28;;;30.00;55.80;;;;;;5046645;28;20107;-61
2023/08/12 12:42:12;;;;;;;5.70;2.05;;;30.00;55.40;;;;;;5045604;28;20096;-62
2023/08/12 12:44:38;;;;;;;12.32;2.58;;;30.00;54.90;;;;;;5044708;28;20096;-62
2023/08/12 12:47:05;;;;;;;7.97;2.33;;;30.00;55.00;;;;;;5046139;28;20084;-62